Latest Weather Observations for Barimunya

IDW60801

Issued at 11:03 am WST Thursday 29 September 2016 (issued every 30 minutes, with the page automatically refreshed every 10 minutes)

About weather observations | Map of weather stations | Latest weather observations for WA | Other Formats
Station Details ID: 505053 Name: BARIMUNYA Lat: -22.67 Lon: 119.16 Height: 629.17 m
Data from the previous 72 hours. | See also: Recent months for locations in Western Australia
Date/Time
WST
Temp
°C
App
Temp
°C
Dew
Point
°C
Rel
Hum
%
Delta-T
°C
Wind Press
QNH
hPa
Press
MSL
hPa
Rain since
9am
mm
Dir  Spd
km/h
Gust
km/h
Spd
kts
Gust
kts
29/11:00am 22.2 16.2 -6.5 14 11.8 ESE 17 26 9 14 1017.6 1014.7 0.0
29/10:30am 20.7 14.8 -6.0 16 10.9 ESE 17 24 9 13 1018.0 1015.1 0.0
29/10:00am 19.9 13.4 -5.8 17 10.4 SE 20 26 11 14 1018.3 1015.4 0.0
29/09:30am 19.0 12.1 -6.6 17 10.2 ESE 22 30 12 16 1018.6 1015.8 0.0
29/09:00am 17.3 9.2 -6.5 19 9.3 ESE 28 35 15 19 1018.8 1016.0 0.0
29/08:30am 16.7 8.3 -6.3 20 9.0 ESE 30 37 16 20 1018.8 1016.0 0.0
29/08:00am 15.6 6.8 -6.6 21 8.5 ESE 32 41 17 22 1018.5 1015.6 0.0
29/07:30am 15.3 6.5 -6.3 22 8.3 SE 32 41 17 22 1018.6 1015.8 0.0
29/07:00am 14.6 5.7 -6.8 22 8.0 ESE 32 43 17 23 1018.4 1015.5 0.0
29/06:30am 14.1 6.4 -6.7 23 7.8 SE 26 32 14 17 1018.0 1015.1 0.0
29/06:00am 13.9 6.9 -7.4 22 7.8 SE 22 32 12 17 1017.7 1014.8 0.0
29/05:30am 14.2 7.2 -7.2 22 8.0 SE 22 30 12 16 1017.4 1014.5 0.0
29/05:00am 14.7 7.3 -7.4 21 8.2 SE 24 30 13 16 1017.0 1014.1 0.0
29/04:30am 15.2 8.7 -6.3 22 8.2 SE 20 24 11 13 1016.7 1013.8 0.0
29/04:00am 15.6 8.3 -6.0 22 8.4 SE 24 32 13 17 1016.3 1013.4 0.0
29/03:30am 16.2 8.9 -6.1 21 8.7 SE 24 30 13 16 1016.0 1013.1 0.0
29/03:00am 15.9 9.9 -6.4 21 8.6 SE 17 22 9 12 1015.9 1013.0 0.0
29/02:30am 15.7 10.1 -6.5 21 8.5 SE 15 17 8 9 1015.8 1012.8 0.0
29/02:00am 16.1 10.8 -6.8 20 8.8 SSE 13 15 7 8 1016.2 1013.3 0.0
29/01:30am 16.0 11.1 -6.9 20 8.7 SSE 11 13 6 7 1016.3 1013.4 0.0
29/01:00am 17.3 11.6 -7.2 18 9.4 SSE 15 17 8 9 1016.4 1013.5 0.0
29/12:30am 17.5 12.2 -7.8 17 9.6 SE 13 15 7 8 1016.7 1013.8 0.0
29/12:00am 17.6 12.3 -7.7 17 9.7 SE 13 15 7 8 1016.9 1014.0 0.0
 
Date/Time
WST
Temp
°C
App
Temp
°C
Dew
Point
°C
Rel
Hum
%
Delta-T
°C
Wind Press
QNH
hPa
Press
MSL
hPa
Rain since
9am
mm
Dir  Spd
km/h
Gust
km/h
Spd
kts
Gust
kts
28/11:30pm 18.0 12.6 -8.2 16 9.9 SE 13 15 7 8 1017.2 1014.4 0.0
28/11:00pm 19.1 13.3 -8.1 15 10.5 SE 15 19 8 10 1017.6 1014.7 0.0
28/10:30pm 19.8 13.3 -8.4 14 10.9 SE 19 24 10 13 1017.5 1014.6 0.0
28/10:00pm 20.2 13.6 -9.1 13 11.2 SE 19 24 10 13 1017.5 1014.6 0.0
28/09:30pm 20.5 14.6 -9.8 12 11.5 SSE 15 17 8 9 1017.6 1014.7 0.0
28/09:00pm 21.1 14.9 -9.4 12 11.7 SE 17 22 9 12 1017.5 1014.6 0.0
28/08:30pm 21.5 15.7 -9.1 12 11.9 SE 15 19 8 10 1017.1 1014.2 0.0
28/08:00pm 22.5 16.0 -8.3 12 12.2 SE 19 26 10 14 1016.9 1014.0 0.0
28/07:30pm 23.1 16.8 -5.8 14 12.1 SE 19 22 10 12 1016.5 1013.6 0.0
28/07:00pm 23.9 17.8 -7.2 12 12.8 SSE 17 22 9 12 1016.3 1013.4 0.0
28/06:30pm 24.6 18.5 -7.8 11 13.3 SSE 17 20 9 11 1015.9 1013.0 0.0
28/06:00pm 25.5 19.4 -8.3 10 13.8 SSE 17 20 9 11 1015.5 1012.6 0.0
28/05:30pm 26.7 20.1 -8.8 9 14.6 SE 19 24 10 13 1015.1 1012.2 0.0
28/05:00pm 27.3 21.2 -8.3 9 14.8 SSE 17 22 9 12 1014.7 1011.8 0.0
28/04:30pm 27.5 21.6 -9.7 8 15.1 S 15 24 8 13 1014.4 1011.5 0.0
28/04:00pm 27.7 21.5 -9.5 8 15.2 SSW 17 28 9 15 1014.2 1011.2 0.0
28/03:30pm 27.8 21.0 -9.4 8 15.3 SSW 20 30 11 16 1014.3 1011.3 0.0
28/03:00pm 27.8 21.3 -7.9 9 15.0 S 19 30 10 16 1014.4 1011.5 0.0
28/02:30pm 28.1 21.8 -6.3 10 14.9 SSW 19 32 10 17 1014.6 1011.7 0.0
28/02:00pm 27.3 21.8 -5.7 11 14.4 SSW 15 26 8 14 1014.9 1012.0 0.0
28/01:30pm 26.7 20.3 -5.0 12 13.9 S 20 35 11 19 1015.2 1012.3 0.0
28/01:00pm 26.8 20.7 -3.9 13 13.8 SSW 19 33 10 18 1015.7 1012.7 0.0
28/12:30pm 26.9 21.0 -1.0 16 13.2 S 20 33 11 18 1016.1 1013.2 0.0
28/12:00pm 25.4 19.3 0.1 19 12.1 S 22 32 12 17 1016.4 1013.5 0.0
28/11:30am 24.8 19.0 -0.4 19 11.9 SSW 20 39 11 21 1016.8 1013.9 0.0
28/11:00am 23.5 17.3 -0.1 21 11.1 S 22 32 12 17 1017.2 1014.4 0.0
28/10:30am 22.9 16.6 1.3 24 10.4 S 24 33 13 18 1017.5 1014.6 0.0
28/10:00am 21.8 15.6 2.0 27 9.5 S 24 35 13 19 1017.8 1014.9 0.0
28/09:30am 21.1 14.9 2.4 29 9.0 S 24 35 13 19 1017.9 1015.0 0.0
28/09:00am 19.5 13.0 2.8 33 8.0 S 26 33 14 18 1017.8 1014.9 0.0
28/08:30am 19.0 12.1 2.8 34 7.8 S 28 37 15 20 1017.7 1014.8 0.0
28/08:00am 18.4 11.3 3.8 38 7.1 S 30 37 16 20 1017.4 1014.5 0.0
28/07:30am 17.4 10.7 3.7 40 6.6 S 28 35 15 19 1017.1 1014.2 0.0
28/07:00am 17.0 10.3 3.7 41 6.4 S 28 41 15 22 1016.6 1013.7 0.0
28/06:30am 16.7 11.5 3.4 41 6.3 S 20 30 11 16 1016.3 1013.4 0.0
28/06:00am 16.3 11.1 2.7 40 6.4 S 19 24 10 13 1016.0 1013.1 0.0
28/05:30am 16.8 11.4 1.3 35 7.1 SSW 19 26 10 14 1015.7 1012.7 0.0
28/05:00am 17.3 12.2 0.5 32 7.6 SSW 17 24 9 13 1015.1 1012.2 0.0
28/04:30am 17.9 13.1 0.1 30 8.0 SSW 15 28 8 15 1014.6 1011.7 0.0
28/04:00am 18.0 13.4 -0.8 28 8.3 SSW 13 22 7 12 1014.2 1011.2 0.0
28/03:30am 18.2 13.5 -1.6 26 8.6 SSW 13 19 7 10 1014.1 1011.1 0.0
28/03:00am 18.9 13.7 -2.7 23 9.3 SSW 15 19 8 10 1014.0 1011.0 0.0
28/02:30am 19.6 14.3 -3.3 21 9.8 SSW 15 20 8 11 1014.0 1011.0 0.0
28/02:00am 19.8 14.9 -3.8 20 10.0 SSW 13 17 7 9 1014.0 1011.0 0.0
28/01:30am 20.8 14.5 -3.6 19 10.5 SSW 20 24 11 13 1014.1 1011.1 0.0
28/01:00am 21.7 14.7 -3.6 18 10.9 SSW 24 32 13 17 1014.1 1011.1 0.0
28/12:30am 22.3 14.5 -3.9 17 11.3 SSW 28 35 15 19 1014.4 1011.5 0.0
28/12:00am 21.9 16.5 -4.2 17 11.2 SSE 15 20 8 11 1014.4 1011.5 0.0
 
Date/Time
WST
Temp
°C
App
Temp
°C
Dew
Point
°C
Rel
Hum
%
Delta-T
°C
Wind Press
QNH
hPa
Press
MSL
hPa
Rain since
9am
mm
Dir  Spd
km/h
Gust
km/h
Spd
kts
Gust
kts
27/11:30pm 22.5 17.2 -3.7 17 11.4 S 15 22 8 12 1014.3 1011.3 0.0
27/11:00pm 22.6 16.9 -0.8 21 10.8 S 19 24 10 13 1014.4 1011.5 0.0
27/10:30pm 22.6 20.5 1.6 25 10.1 NNW 2 7 1 4 1013.8 1010.9 0.0
27/10:00pm 23.1 19.0 -3.3 17 11.6 N 9 13 5 7 1014.1 1011.1 0.0
27/09:30pm 23.4 20.0 -2.2 18 11.5 NW 6 11 3 6 1014.1 1011.1 0.0
27/09:00pm 24.7 20.4 -2.0 17 12.2 W 11 19 6 10 1013.7 1010.8 0.0
27/08:30pm 24.4 21.0 -2.2 17 12.1 WSW 6 11 3 6 1013.3 1010.4 0.0
27/08:00pm 26.2 22.2 -2.4 15 13.1 NW 9 11 5 6 1012.8 1009.8 0.0
27/07:30pm 26.4 22.4 -2.3 15 13.2 NNW 9 13 5 7 1012.7 1009.7 0.0
27/07:00pm 26.9 22.8 -2.8 14 13.6 NW 9 11 5 6 1012.6 1009.6 0.0
27/06:30pm 28.2 23.0 -2.8 13 14.3 W 15 20 8 11 1012.3 1009.3 0.0
27/06:00pm 29.1 23.5 -3.2 12 15.0 W 17 22 9 12 1011.7 1008.8 0.0
27/05:30pm 30.2 24.1 -2.3 12 15.4 WNW 20 26 11 14 1011.5 1008.5 0.0
27/05:00pm 30.6 25.5 -2.0 12 15.6 NW 15 20 8 11 1011.3 1008.3 0.0
27/04:30pm 30.9 25.8 -1.8 12 15.7 WNW 15 26 8 14 1011.2 1008.2 0.0
27/04:00pm 30.8 23.9 -3.0 11 15.9 WNW 24 33 13 18 1011.2 1008.2 0.0
27/03:30pm 30.6 25.6 -0.9 13 15.3 W 15 22 8 12 1011.2 1008.2 0.0
27/03:00pm 30.7 25.0 -0.8 13 15.4 NNW 19 28 10 15 1011.4 1008.4 0.0
27/02:30pm 30.3 25.1 -0.1 14 15.0 N 17 28 9 15 1011.8 1008.9 0.0
27/02:00pm 30.5 25.8 -2.1 12 15.5 NNW 13 20 7 11 1012.0 1009.1 0.0
27/01:30pm 29.9 26.1 -0.5 14 14.8 N 9 22 5 12 1012.6 1009.6 0.0
27/01:00pm 28.6 24.8 -0.5 15 14.1 NNW 9 17 5 9 1013.1 1010.2 0.0
27/12:30pm 27.8 23.3 -0.3 16 13.5 NE 13 24 7 13 1013.6 1010.7 0.0
27/12:00pm 27.1 21.9 0.0 17 13.1 ENE 17 26 9 14 1014.2 1011.2 0.0
27/11:30am 27.5 22.1 -1.4 15 13.6 ENE 17 24 9 13 1014.8 1011.9 0.0
27/11:00am 27.5 21.8 -0.5 16 13.4 E 19 30 10 16 1015.2 1012.3 0.0
27/10:30am 26.6 20.6 -1.3 16 13.1 E 20 32 11 17 1015.9 1013.0 0.0
27/10:00am 26.2 20.5 -0.8 17 12.7 E 19 28 10 15 1016.4 1013.5 0.0
27/09:30am 24.8 19.1 -1.1 18 12.0 E 19 28 10 15 1016.7 1013.8 0.0
27/09:00am 24.2 18.2 -1.6 18 11.8 ESE 20 26 11 14 1016.9 1014.0 0.0
27/08:30am 23.3 16.9 -1.6 19 11.3 ESE 22 32 12 17 1017.0 1014.1 0.0
27/08:00am 21.6 15.5 -2.3 20 10.6 SE 20 24 11 13 1017.0 1014.1 0.0
27/07:30am 20.4 14.5 -2.6 21 10.0 SE 19 24 10 13 1016.8 1013.9 0.0
27/07:00am 19.0 13.8 -2.6 23 9.3 SE 15 20 8 11 1016.5 1013.6 0.0
27/06:30am 17.5 13.4 -2.7 25 8.6 SE 9 13 5 7 1016.2 1013.3 0.0
27/06:00am 13.0 9.3 -2.5 34 6.3 SSE 7 9 4 5 1016.1 1013.2 0.0
27/05:30am 13.1 10.7 -2.8 33 6.4 CALM 0 0 0 0 1015.9 1013.0 0.0
27/05:00am 14.4 10.6 -3.9 28 7.3 SSE 7 9 4 5 1015.5 1012.6 0.0
27/04:30am 15.8 12.1 -3.1 27 7.8 SSE 7 9 4 5 1015.3 1012.4 0.0
27/04:00am 16.0 12.2 -3.5 26 8.0 SSE 7 9 4 5 1015.1 1012.2 0.0
27/03:30am 16.4 12.8 -3.7 25 8.2 SSE 6 7 3 4 1015.0 1012.1 0.0
27/03:00am 17.3 12.7 -4.0 23 8.8 SSE 11 13 6 7 1015.0 1012.1 0.0
27/02:30am 18.0 13.4 -4.0 22 9.1 SSE 11 15 6 8 1015.1 1012.2 0.0
27/02:00am 18.3 13.3 -4.4 21 9.3 SSE 13 15 7 8 1015.1 1012.2 0.0
27/01:30am 17.5 13.3 -3.8 23 8.8 SSE 9 11 5 6 1015.3 1012.4 0.0
27/01:00am 16.4 14.0 -3.1 26 8.1 CALM 0 0 0 0 1015.5 1012.6 0.0
27/12:30am 19.1 15.4 -4.4 20 9.8 SE 6 7 3 4 1015.5 1012.6 0.0
27/12:00am 19.3 15.4 -4.2 20 9.8 SE 7 9 4 5 1015.8 1012.8 0.0
 
Date/Time
WST
Temp
°C
App
Temp
°C
Dew
Point
°C
Rel
Hum
%
Delta-T
°C
Wind Press
QNH
hPa
Press
MSL
hPa
Rain since
9am
mm
Dir  Spd
km/h
Gust
km/h
Spd
kts
Gust
kts
26/11:30pm 20.3 15.3 -4.0 19 10.3 SSE 13 15 7 8 1015.9 1013.0 0.0
26/11:00pm 19.8 16.0 -3.8 20 10.0 SSE 7 9 4 5 1016.1 1013.2 0.0
26/10:30pm 19.6 17.1 -3.9 20 9.9 CALM 0 0 0 0 1016.2 1013.3 0.0
26/10:00pm 19.5 17.0 -4.0 20 9.9 CALM 0 0 0 0 1016.3 1013.4 0.0
26/09:30pm 19.6 17.1 -3.9 20 9.9 CALM 0 0 0 0 1016.4 1013.5 0.0
26/09:00pm 21.1 18.6 -4.1 18 10.7 CALM 0 7 0 4 1016.4 1013.5 0.0
26/08:30pm 22.6 18.3 -5.3 15 11.8 SSE 9 11 5 6 1016.0 1013.1 0.0
26/08:00pm 23.1 19.2 -4.9 15 11.9 SE 7 11 4 6 1015.7 1012.7 0.0
26/07:30pm 23.2 19.5 -4.8 15 12.0 SE 6 6 3 3 1015.4 1012.5 0.0
26/07:00pm 24.2 19.9 -4.9 14 12.5 SE 9 11 5 6 1015.1 1012.2 0.0
26/06:30pm 25.0 21.0 -5.3 13 13.1 SE 7 9 4 5 1014.6 1011.7 0.0
26/06:00pm 26.2 21.0 -6.5 11 13.9 SE 13 17 7 9 1014.3 1011.3 0.0
26/05:30pm 27.0 21.8 -5.9 11 14.3 SSE 13 20 7 11 1014.0 1011.0 0.0
26/05:00pm 27.5 22.4 -5.6 11 14.5 ESE 13 20 7 11 1013.5 1010.6 0.0
26/04:30pm 28.1 22.5 -6.3 10 14.9 ESE 15 26 8 14 1013.3 1010.4 0.0
26/04:00pm 28.0 21.6 -6.4 10 14.9 SE 19 32 10 17 1013.2 1010.3 0.0
26/03:30pm 27.3 21.0 -5.7 11 14.4 SSE 19 28 10 15 1013.1 1010.2 0.0
26/03:00pm 27.9 22.4 -5.2 11 14.6 SE 15 28 8 15 1013.2 1010.3 0.0
26/02:30pm 28.3 22.1 -4.9 11 14.8 ESE 19 28 10 15 1013.2 1010.3 0.0
26/02:00pm 27.4 20.6 -5.6 11 14.4 SSE 22 32 12 17 1013.2 1010.3 0.0
26/01:30pm 27.0 20.6 -4.8 12 14.1 SE 20 37 11 20 1013.5 1010.6 0.0
26/01:00pm 27.7 20.6 -4.3 12 14.4 SSE 24 48 13 26 1013.8 1010.9 0.0
26/12:30pm 27.1 20.1 -3.7 13 13.9 SSE 24 41 13 22 1014.1 1011.1 0.0
26/12:00pm 25.9 18.1 -3.6 14 13.2 SE 28 41 15 22 1014.6 1011.7 0.0
26/11:30am 25.4 17.2 -4.0 14 13.0 SE 30 41 16 22 1015.0 1012.1 0.0

Other Formats:

Comma delimited format used in spreadsheet applications
http://www.bom.gov.au/fwo/IDW60801/IDW60801.99313.axf

JavaScript Object Notation format (JSON) in row-major order
http://www.bom.gov.au/fwo/IDW60801/IDW60801.99313.json